Bates, Oregon
Current Conditions -  °F | °C
As of 2:35 PM on Friday 19 Dec 2014 (Local Time) from KGCD Reporting Station
Scattered Clouds Scattered Clouds  
Wind Chill: 37°   Ceiling: Unl
Heat Index: 43°   Visibility: 10mi
Dew Point: 37°   Wind: 10mph
Humidity: 78%   Direction: 200°SSW
Pressure: 29.99"   Gusts: NA
Location:  44.59°N, 118.51°W
Report Text: KGCD 192235Z AUTO 20009KT 10SM SCT039 SCT050 SCT085 06/03 A2999 RMK AO2 T00600025
Loading
Personal Weather Stations






























Interactive Weather Map New forecast layout! Learn more

10-Day Weather Forecast

Advertisements
Track Severe Weather on mobile